createdAt,value
2022-11-05T00:00:34.457Z,2.05
2022-11-05T00:03:20.293Z,2.00
2022-11-05T00:06:23.943Z,1.90
2022-11-05T00:09:09.780Z,1.90
2022-11-05T00:11:56.189Z,1.88
2022-11-05T00:14:42.293Z,1.93
2022-11-05T00:17:12.542Z,1.85
2022-11-05T00:19:41.049Z,1.72
2022-11-05T00:22:26.946Z,1.83
2022-11-05T00:25:13.094Z,1.75
2022-11-05T00:27:41.837Z,1.78
2022-11-05T00:30:12.316Z,1.89
2022-11-05T00:32:42.434Z,1.88
2022-11-05T00:35:11.343Z,1.93
2022-11-05T00:37:41.597Z,1.86
2022-11-05T00:40:15.194Z,1.71
2022-11-05T00:43:01.708Z,1.53
2022-11-05T00:45:31.495Z,1.65
2022-11-05T00:48:18.636Z,1.55
2022-11-05T00:50:47.541Z,1.61
2022-11-05T00:53:16.019Z,1.63
2022-11-05T00:55:46.406Z,1.72
2022-11-05T00:58:16.613Z,1.71
2022-11-05T01:00:51.698Z,1.64
2022-11-05T01:03:24.022Z,1.63
2022-11-05T01:05:55.593Z,1.68
2022-11-05T01:08:26.933Z,1.69
2022-11-05T01:10:57.755Z,1.78
2022-11-05T01:13:29.117Z,1.52
2022-11-05T01:15:58.856Z,1.24
2022-11-05T01:18:28.877Z,1.24
2022-11-05T01:20:57.403Z,1.18
2022-11-05T01:23:26.018Z,1.19
2022-11-05T01:25:54.684Z,1.18
2022-11-05T01:28:23.961Z,1.00
2022-11-05T01:30:59.197Z,0.76
2022-11-05T01:33:29.517Z,0.74
2022-11-05T01:35:58.172Z,0.79
2022-11-05T01:38:26.841Z,0.68
2022-11-05T01:40:55.454Z,0.57
2022-11-05T01:43:25.426Z,0.57
2022-11-05T01:45:58.862Z,0.64
2022-11-05T01:48:34.432Z,0.65
2022-11-05T01:51:06.366Z,0.78
2022-11-05T01:53:39.918Z,0.72
2022-11-05T01:56:11.456Z,0.58
2022-11-05T01:58:48.733Z,0.47
2022-11-05T02:01:17.931Z,0.55
2022-11-05T02:03:50.063Z,0.44
2022-11-05T02:06:20.153Z,0.39
2022-11-05T02:08:58.871Z,0.63
2022-11-05T02:11:27.637Z,0.46
2022-11-05T02:13:56.294Z,0.48
2022-11-05T02:16:38.219Z,0.41
2022-11-05T02:19:31.830Z,0.55
2022-11-05T02:22:40.468Z,0.40
2022-11-05T02:25:40.736Z,0.37
2022-11-05T02:28:33.888Z,0.36
2022-11-05T02:31:08.234Z,0.42
2022-11-05T02:33:45.404Z,0.29
2022-11-05T02:36:30.046Z,0.51
2022-11-05T02:39:13.178Z,0.43
2022-11-05T02:41:50.585Z,0.44
2022-11-05T02:44:28.363Z,0.51
2022-11-05T02:47:07.210Z,0.59
2022-11-05T02:49:44.863Z,0.51
2022-11-05T02:52:20.493Z,0.48
2022-11-05T02:54:59.600Z,0.48
2022-11-05T02:57:30.951Z,0.39
2022-11-05T03:00:03.731Z,0.46
2022-11-05T03:02:34.310Z,0.44
2022-11-05T03:05:04.477Z,0.52
2022-11-05T03:07:43.890Z,0.36
2022-11-05T03:10:28.788Z,0.33
2022-11-05T03:13:13.433Z,0.19
2022-11-05T03:15:55.970Z,0.39
2022-11-05T03:18:35.482Z,0.37
2022-11-05T03:21:08.400Z,0.37
2022-11-05T03:23:47.341Z,0.32
2022-11-05T03:26:20.924Z,0.34
2022-11-05T03:28:56.100Z,0.26
2022-11-05T03:31:27.063Z,0.38
2022-11-05T03:33:59.500Z,0.36
2022-11-05T03:36:33.878Z,0.30
2022-11-05T03:39:06.870Z,0.17
2022-11-05T03:41:38.490Z,0.24
2022-11-05T03:44:12.892Z,0.13
2022-11-05T03:46:45.382Z,0.14
2022-11-05T03:49:22.907Z,0.14
2022-11-05T03:51:56.920Z,0.12
2022-11-05T03:54:25.646Z,0.02
2022-11-05T03:57:03.575Z,-0.06
2022-11-05T03:59:39.725Z,-0.06
2022-11-05T04:02:08.887Z,0.03
2022-11-05T04:04:39.554Z,0.06
2022-11-05T04:07:26.380Z,0.04
2022-11-05T04:10:12.572Z,-0.12
2022-11-05T04:12:59.045Z,-0.18
2022-11-05T04:15:29.866Z,-0.09
2022-11-05T04:18:01.741Z,-0.13
2022-11-05T04:20:49.609Z,-0.22
2022-11-05T04:23:35.708Z,-0.24
2022-11-05T04:26:04.709Z,-0.25
2022-11-05T04:28:47.127Z,-0.16
2022-11-05T04:31:16.044Z,-0.08
2022-11-05T04:33:44.726Z,-0.08
2022-11-05T04:36:15.226Z,-0.19
2022-11-05T04:38:47.324Z,-0.24
2022-11-05T04:41:18.746Z,-0.47
2022-11-05T04:43:47.573Z,-0.51
2022-11-05T04:46:16.609Z,-0.57
2022-11-05T04:48:45.400Z,-0.46
2022-11-05T04:51:15.932Z,-0.35
2022-11-05T04:53:44.664Z,-0.37
2022-11-05T04:56:14.727Z,-0.53
2022-11-05T04:58:44.208Z,-0.61
2022-11-05T05:01:14.612Z,-0.62
2022-11-05T05:03:43.691Z,-0.75
2022-11-05T05:06:12.814Z,-0.68
2022-11-05T05:08:43.091Z,-0.75
2022-11-05T05:11:14.232Z,-0.67
2022-11-05T05:13:43.267Z,-0.71
2022-11-05T05:16:20.606Z,-0.78
2022-11-05T05:18:50.707Z,-0.74
2022-11-05T05:21:39.251Z,-0.72
2022-11-05T05:24:11.675Z,-0.75
2022-11-05T05:26:45.508Z,-0.82
2022-11-05T05:29:15.084Z,-0.67
2022-11-05T05:31:44.270Z,-0.79
2022-11-05T05:34:17.575Z,-0.70
2022-11-05T05:36:46.377Z,-0.72
2022-11-05T05:39:16.934Z,-0.69
2022-11-05T05:41:45.666Z,-0.79
2022-11-05T05:44:14.604Z,-0.70
2022-11-05T05:46:46.505Z,-0.71
2022-11-05T05:49:18.243Z,-0.60
2022-11-05T05:51:47.326Z,-0.57
2022-11-05T05:54:18.116Z,-0.43
2022-11-05T05:56:47.347Z,-0.51
2022-11-05T05:59:16.739Z,-0.49
2022-11-05T06:01:46.089Z,-0.37
2022-11-05T06:04:15.128Z,-0.51
2022-11-05T06:06:46.989Z,-0.55
2022-11-05T06:09:17.868Z,-0.82
2022-11-05T06:11:46.791Z,-0.74
2022-11-05T06:14:17.037Z,-0.60
2022-11-05T06:16:46.063Z,-0.73
2022-11-05T06:19:14.861Z,-0.69
2022-11-05T06:21:43.789Z,-0.68
2022-11-05T06:24:12.797Z,-0.59
2022-11-05T06:26:43.779Z,-0.57
2022-11-05T06:29:12.355Z,-0.55
2022-11-05T06:31:41.190Z,-0.64
2022-11-05T06:34:12.428Z,-0.61
2022-11-05T06:36:41.673Z,-0.55
2022-11-05T06:39:12.327Z,-0.63
2022-11-05T06:42:12.043Z,-0.67
2022-11-05T06:44:32.211Z,-0.78
2022-11-05T06:47:01.678Z,-0.72
2022-11-05T06:49:31.653Z,-0.76
2022-11-05T06:52:00.602Z,-0.59
2022-11-05T06:54:29.507Z,-0.54
2022-11-05T06:56:59.972Z,-0.48
2022-11-05T07:00:23.891Z,-0.48
2022-11-05T07:03:15.170Z,-0.55
2022-11-05T07:05:48.641Z,-0.55
2022-11-05T07:08:18.453Z,-0.50
2022-11-05T07:10:47.424Z,-0.55
2022-11-05T07:13:17.706Z,-0.63
2022-11-05T07:15:46.959Z,-0.64
2022-11-05T07:18:15.772Z,-0.60
2022-11-05T07:20:44.488Z,-0.59
2022-11-05T07:23:15.623Z,-0.77
2022-11-05T07:25:45.669Z,-0.73
2022-11-05T07:28:14.761Z,-0.62
2022-11-05T07:30:45.408Z,-0.74
2022-11-05T07:33:17.313Z,-0.71
2022-11-05T07:35:46.350Z,-0.66
2022-11-05T07:38:15.203Z,-0.65
2022-11-05T07:40:47.141Z,-0.62
2022-11-05T07:43:16.140Z,-0.60
2022-11-05T07:45:47.479Z,-0.55
2022-11-05T07:48:16.368Z,-0.54
2022-11-05T07:50:45.708Z,-0.53
2022-11-05T07:53:17.270Z,-0.61
2022-11-05T07:55:46.428Z,-0.42
2022-11-05T07:58:16.430Z,-0.43
2022-11-05T08:00:47.025Z,-0.53
2022-11-05T08:03:18.351Z,-0.52
2022-11-05T08:05:50.282Z,-0.57
2022-11-05T08:08:22.031Z,-0.49
2022-11-05T08:10:52.945Z,-0.51
2022-11-05T08:13:21.726Z,-0.57
2022-11-05T08:15:55.030Z,-0.54
2022-11-05T08:18:23.890Z,-0.37
2022-11-05T08:20:55.088Z,-0.41
2022-11-05T08:23:24.122Z,-0.38
2022-11-05T08:25:52.963Z,-0.42
2022-11-05T08:28:22.306Z,-0.37
2022-11-05T08:30:53.688Z,-0.35
2022-11-05T08:33:23.766Z,-0.42
2022-11-05T08:35:52.643Z,-0.36
2022-11-05T08:38:21.950Z,-0.27
2022-11-05T08:40:57.806Z,-0.34
2022-11-05T08:43:26.723Z,-0.38
2022-11-05T08:45:56.850Z,-0.32
2022-11-05T08:48:25.511Z,-0.22
2022-11-05T08:50:54.167Z,-0.31
2022-11-05T08:53:22.775Z,-0.18
2022-11-05T08:55:51.789Z,-0.14
2022-11-05T08:58:21.094Z,-0.22
2022-11-05T09:00:50.906Z,-0.24
2022-11-05T09:03:21.358Z,-0.28
2022-11-05T09:05:49.959Z,-0.22
2022-11-05T09:08:20.145Z,-0.20
2022-11-05T09:10:49.960Z,-0.30
2022-11-05T09:13:20.286Z,-0.23
2022-11-05T09:15:49.582Z,-0.12
2022-11-05T09:18:19.389Z,-0.14
2022-11-05T09:20:49.704Z,0.05
2022-11-05T09:23:19.723Z,-0.09
2022-11-05T09:25:48.818Z,-0.25
2022-11-05T09:30:58.504Z,-0.28
2022-11-05T09:33:27.537Z,-0.28
2022-11-05T09:35:56.208Z,-0.22
2022-11-05T09:38:24.920Z,-0.13
2022-11-05T09:40:58.838Z,-0.07
2022-11-05T09:43:33.941Z,-0.17
2022-11-05T09:46:09.815Z,-0.03
2022-11-05T09:48:42.061Z,-0.02
2022-11-05T09:51:20.827Z,-0.10
2022-11-05T09:53:53.815Z,0.08
2022-11-05T09:56:26.057Z,0.04
2022-11-05T09:59:00.052Z,0.06
2022-11-05T10:01:34.902Z,0.06
2022-11-05T10:04:09.502Z,0.13
2022-11-05T10:06:45.726Z,0.21
2022-11-05T10:09:20.406Z,0.24
2022-11-05T10:11:55.085Z,0.39
2022-11-05T10:14:28.624Z,0.16
2022-11-05T10:17:02.734Z,0.24
2022-11-05T10:19:41.015Z,0.11
2022-11-05T10:22:13.420Z,0.16
2022-11-05T10:24:46.578Z,0.28
2022-11-05T10:27:19.936Z,0.33
2022-11-05T10:29:49.704Z,0.34
2022-11-05T10:32:28.142Z,0.37
2022-11-05T10:35:00.933Z,0.37
2022-11-05T10:37:34.970Z,0.41
2022-11-05T10:40:16.975Z,0.39
2022-11-05T10:42:57.456Z,0.33
2022-11-05T10:45:36.507Z,0.35
2022-11-05T10:48:45.578Z,0.21
2022-11-05T10:51:15.080Z,0.24
2022-11-05T10:53:55.974Z,0.15
2022-11-05T10:56:33.581Z,0.27
2022-11-05T10:59:06.658Z,0.25
2022-11-05T11:01:38.446Z,0.24
2022-11-05T11:04:16.747Z,0.20
2022-11-05T11:06:50.781Z,0.29
2022-11-05T11:09:23.921Z,0.25
2022-11-05T11:12:03.559Z,0.21
2022-11-05T11:14:33.407Z,0.29
2022-11-05T11:17:18.404Z,0.31
2022-11-05T11:19:48.646Z,0.36
2022-11-05T11:22:23.122Z,0.23
2022-11-05T11:24:54.175Z,0.27
2022-11-05T11:27:30.541Z,0.30
2022-11-05T11:30:01.163Z,0.37
2022-11-05T11:32:34.900Z,0.30
2022-11-05T11:35:07.124Z,0.32
2022-11-05T11:37:37.632Z,0.25
2022-11-05T11:40:18.354Z,0.27
2022-11-05T11:42:49.094Z,0.34
2022-11-05T11:45:20.440Z,0.30
2022-11-05T11:47:51.149Z,0.41
2022-11-05T11:50:43.701Z,0.45
2022-11-05T11:53:31.015Z,0.57
2022-11-05T11:56:02.516Z,0.48
2022-11-05T11:58:41.024Z,0.48
2022-11-05T12:01:36.101Z,0.47
2022-11-05T12:04:17.017Z,0.43
2022-11-05T12:06:54.596Z,0.50
2022-11-05T12:09:36.209Z,0.45
2022-11-05T12:12:11.290Z,0.38
2022-11-05T12:14:49.928Z,0.45
2022-11-05T12:17:45.648Z,0.45
2022-11-05T12:20:36.862Z,0.37
2022-11-05T12:23:34.496Z,0.42
2022-11-05T12:26:11.341Z,0.42
2022-11-05T12:31:57.257Z,0.60
2022-11-05T12:34:43.344Z,0.46
2022-11-05T12:37:26.159Z,0.61
2022-11-05T12:40:20.161Z,0.79
2022-11-05T12:43:09.137Z,0.73
2022-11-05T12:45:47.155Z,0.67
2022-11-05T12:48:37.847Z,0.69
2022-11-05T12:51:17.030Z,0.78
2022-11-05T12:53:57.757Z,0.73
2022-11-05T12:56:36.432Z,0.84
2022-11-05T12:59:14.472Z,0.73
2022-11-05T13:01:47.837Z,0.74
2022-11-05T13:04:30.022Z,0.85
2022-11-05T13:07:00.723Z,0.73
2022-11-05T13:09:35.724Z,0.79
2022-11-05T13:12:08.959Z,0.79
2022-11-05T13:14:43.944Z,0.84
2022-11-05T13:17:16.384Z,0.92
2022-11-05T13:19:52.880Z,0.96
2022-11-05T13:22:30.392Z,1.06
2022-11-05T13:25:02.469Z,1.12
2022-11-05T13:27:59.108Z,1.11
2022-11-05T13:30:31.902Z,1.07
2022-11-05T13:33:05.903Z,1.17
2022-11-05T13:35:42.902Z,1.20
2022-11-05T13:38:36.921Z,1.12
2022-11-05T13:41:22.191Z,1.16
2022-11-05T13:44:07.197Z,1.16
2022-11-05T13:47:08.286Z,1.03
2022-11-05T13:49:59.228Z,1.08
2022-11-05T13:52:51.277Z,1.13
2022-11-05T13:55:52.854Z,1.22
2022-11-05T13:58:45.857Z,1.27
2022-11-05T14:01:28.443Z,1.25
2022-11-05T14:03:58.196Z,1.33
2022-11-05T14:06:29.924Z,1.31
2022-11-05T14:09:03.182Z,1.26
2022-11-05T14:11:34.681Z,1.28
2022-11-05T14:14:06.386Z,1.35
2022-11-05T14:16:52.206Z,1.35
2022-11-05T14:19:37.343Z,1.22
2022-11-05T14:22:36.973Z,1.26
2022-11-05T14:26:01.380Z,1.25
2022-11-05T14:28:40.437Z,1.23
2022-11-05T14:31:41.119Z,1.31
2022-11-05T14:34:41.587Z,1.18
2022-11-05T14:37:32.598Z,1.19
2022-11-05T14:40:42.555Z,1.21
2022-11-05T14:43:21.913Z,1.13
2022-11-05T14:46:00.715Z,1.19
2022-11-05T14:48:39.012Z,1.07
2022-11-05T14:51:32.541Z,1.10
2022-11-05T14:54:04.584Z,1.04
2022-11-05T14:56:44.343Z,0.98
2022-11-05T14:59:49.561Z,1.03
2022-11-05T15:02:21.855Z,1.11
2022-11-05T15:04:53.097Z,1.07
2022-11-05T15:07:39.243Z,1.09
2022-11-05T15:10:13.895Z,1.05
2022-11-05T15:12:47.010Z,1.05
2022-11-05T15:15:23.012Z,1.06
2022-11-05T15:18:00.959Z,1.07
2022-11-05T15:20:40.248Z,1.12
2022-11-05T15:23:14.736Z,1.19
2022-11-05T15:25:52.975Z,1.22
2022-11-05T15:28:31.922Z,1.11
2022-11-05T15:31:02.138Z,1.06
2022-11-05T15:33:31.472Z,1.08
2022-11-05T15:36:11.419Z,1.08
2022-11-05T15:39:02.007Z,1.25
2022-11-05T15:41:34.739Z,1.25
2022-11-05T15:44:03.536Z,1.25
2022-11-05T15:46:32.074Z,1.36
2022-11-05T15:49:04.424Z,1.37
2022-11-05T15:51:33.324Z,1.41
2022-11-05T15:54:29.115Z,1.35
2022-11-05T15:56:56.739Z,1.25
2022-11-05T15:59:27.161Z,1.35
2022-11-05T16:02:01.307Z,1.24
2022-11-05T16:04:33.260Z,1.16
2022-11-05T16:07:11.228Z,1.25
2022-11-05T16:09:46.184Z,1.42
2022-11-05T16:12:28.592Z,1.32
2022-11-05T16:15:04.033Z,1.26
2022-11-05T16:17:35.181Z,1.33
2022-11-05T16:20:03.470Z,1.32
2022-11-05T16:22:47.641Z,1.33
2022-11-05T16:25:28.521Z,1.21
2022-11-05T16:27:57.757Z,1.31
2022-11-05T16:30:26.809Z,1.34
2022-11-05T16:32:56.177Z,1.43
2022-11-05T16:35:26.408Z,1.35
2022-11-05T16:37:55.170Z,1.45
2022-11-05T16:40:26.989Z,1.35
2022-11-05T16:42:56.373Z,1.33
2022-11-05T16:45:26.399Z,1.29
2022-11-05T16:47:55.039Z,1.45
2022-11-05T16:50:26.377Z,1.39
2022-11-05T16:52:54.961Z,1.32
2022-11-05T16:55:24.962Z,1.33
2022-11-05T16:57:55.955Z,1.29
2022-11-05T17:00:26.857Z,1.31
2022-11-05T17:02:58.714Z,1.34
2022-11-05T17:05:30.023Z,1.53
2022-11-05T17:08:00.941Z,1.52
2022-11-05T17:10:31.572Z,1.52
2022-11-05T17:13:00.359Z,1.58
2022-11-05T17:15:31.297Z,1.53
2022-11-05T17:18:00.211Z,1.48
2022-11-05T17:20:39.464Z,1.46
2022-11-05T17:23:11.316Z,1.45
2022-11-05T17:25:42.873Z,1.48
2022-11-05T17:28:13.620Z,1.45
2022-11-05T17:30:47.856Z,1.55
2022-11-05T17:33:20.233Z,1.43
2022-11-05T17:35:49.178Z,1.59
2022-11-05T17:38:18.492Z,1.61
2022-11-05T17:40:48.906Z,1.56
2022-11-05T17:43:17.684Z,1.55
2022-11-05T17:45:48.285Z,1.67
2022-11-05T17:48:17.632Z,1.62
2022-11-05T17:50:48.892Z,1.67
2022-11-05T17:53:19.509Z,1.63
2022-11-05T17:55:49.993Z,1.68
2022-11-05T17:58:19.052Z,1.65
2022-11-05T18:00:49.424Z,1.76
2022-11-05T18:03:18.055Z,1.78
2022-11-05T18:05:46.575Z,1.81
2022-11-05T18:08:15.240Z,1.67
2022-11-05T18:10:43.829Z,1.71
2022-11-05T18:13:14.172Z,1.72
2022-11-05T18:15:43.826Z,1.72
2022-11-05T18:18:12.403Z,1.67
2022-11-05T18:20:41.079Z,1.70
2022-11-05T18:23:09.884Z,1.76
2022-11-05T18:25:40.886Z,1.74
2022-11-05T18:28:10.840Z,1.68
2022-11-05T18:30:42.291Z,1.71
2022-11-05T18:33:11.391Z,1.75
2022-11-05T18:35:44.256Z,1.74
2022-11-05T18:38:13.634Z,1.81
2022-11-05T18:40:42.428Z,1.83
2022-11-05T18:43:11.420Z,1.82
2022-11-05T18:45:42.386Z,1.85
2022-11-05T18:48:13.151Z,1.76
2022-11-05T18:50:42.122Z,1.79
2022-11-05T18:53:10.861Z,1.79
2022-11-05T18:55:41.363Z,1.86
2022-11-05T18:58:10.599Z,1.86
2022-11-05T19:00:43.381Z,1.97
2022-11-05T19:03:12.521Z,1.83
2022-11-05T19:05:41.810Z,1.87
2022-11-05T19:08:10.948Z,1.85
2022-11-05T19:10:41.418Z,1.86
2022-11-05T19:13:10.178Z,1.92
2022-11-05T19:15:39.439Z,1.87
2022-11-05T19:18:10.245Z,1.82
2022-11-05T19:20:40.420Z,1.81
2022-11-05T19:23:09.538Z,1.78
2022-11-05T19:25:39.140Z,1.82
2022-11-05T19:28:08.576Z,1.82
2022-11-05T19:30:39.334Z,1.82
2022-11-05T19:33:43.934Z,1.73
2022-11-05T19:36:13.899Z,1.75
2022-11-05T19:38:43.081Z,1.71
2022-11-05T19:41:14.232Z,1.76
2022-11-05T19:43:43.287Z,1.74
2022-11-05T19:46:14.468Z,1.71
2022-11-05T19:48:45.067Z,1.82
2022-11-05T19:51:17.406Z,1.78
2022-11-05T19:53:46.428Z,1.82
2022-11-05T19:56:16.935Z,1.77
2022-11-05T19:58:46.535Z,1.71
2022-11-05T20:01:16.408Z,1.72
2022-11-05T20:03:46.872Z,1.68
2022-11-05T20:06:18.129Z,1.65
2022-11-05T20:09:15.324Z,1.70
2022-11-05T20:11:39.617Z,1.63
2022-11-05T20:14:09.846Z,1.65
2022-11-05T20:16:40.535Z,1.70
2022-11-05T20:19:13.150Z,1.70
2022-11-05T20:21:43.749Z,1.69
2022-11-05T20:24:18.625Z,1.63
2022-11-05T20:26:51.065Z,1.65
2022-11-05T20:29:20.391Z,1.71
2022-11-05T20:31:53.738Z,1.70
2022-11-05T20:34:24.148Z,1.64
2022-11-05T20:36:52.959Z,1.60
2022-11-05T20:39:21.818Z,1.60
2022-11-05T20:41:50.648Z,1.72
2022-11-05T20:44:19.446Z,1.67
2022-11-05T20:46:48.166Z,1.62
2022-11-05T20:49:23.999Z,1.55
2022-11-05T20:51:56.485Z,1.56
2022-11-05T20:54:28.253Z,1.47
2022-11-05T20:56:57.195Z,1.48
2022-11-05T20:59:26.365Z,1.48
2022-11-05T21:01:55.551Z,1.54
2022-11-05T21:04:24.445Z,1.58
2022-11-05T21:06:56.885Z,1.53
2022-11-05T21:09:26.070Z,1.57
2022-11-05T21:12:13.079Z,1.54
2022-11-05T21:14:43.303Z,1.56
2022-11-05T21:17:14.171Z,1.52
2022-11-05T21:19:42.935Z,1.62
2022-11-05T21:22:15.728Z,1.63
2022-11-05T21:24:44.619Z,1.55
2022-11-05T21:27:13.330Z,1.48
2022-11-05T21:29:42.030Z,1.53
2022-11-05T21:32:10.773Z,1.52
2022-11-05T21:34:39.641Z,1.63
2022-11-05T21:37:08.498Z,1.48
2022-11-05T21:39:38.936Z,1.37
2022-11-05T21:42:07.756Z,1.44
2022-11-05T21:44:36.398Z,1.40
2022-11-05T21:47:05.282Z,1.41
2022-11-05T21:49:36.338Z,1.45
2022-11-05T21:52:21.887Z,1.48
2022-11-05T21:55:10.358Z,1.52
2022-11-05T21:57:56.065Z,1.47
2022-11-05T22:00:24.757Z,1.43
2022-11-05T22:02:53.398Z,1.42
2022-11-05T22:05:22.943Z,1.55
2022-11-05T22:07:51.540Z,1.53
2022-11-05T22:10:21.797Z,1.46
2022-11-05T22:12:50.407Z,1.52
2022-11-05T22:15:19.167Z,1.50
2022-11-05T22:17:50.769Z,1.46
2022-11-05T22:20:19.662Z,1.52
2022-11-05T22:22:48.227Z,1.53
2022-11-05T22:25:18.231Z,1.50
2022-11-05T22:27:48.294Z,1.55
2022-11-05T22:30:16.914Z,1.53
2022-11-05T22:32:46.449Z,1.52
2022-11-05T22:35:15.150Z,1.50
2022-11-05T22:37:43.638Z,1.50
2022-11-05T22:40:12.648Z,1.58
2022-11-05T22:42:41.517Z,1.60
2022-11-05T22:45:12.442Z,1.57
2022-11-05T22:47:43.027Z,1.58
2022-11-05T22:50:12.197Z,1.52
2022-11-05T22:52:40.827Z,1.65
2022-11-05T22:55:10.210Z,1.72
2022-11-05T22:57:38.889Z,1.64
2022-11-05T23:00:18.332Z,1.71
2022-11-05T23:02:47.098Z,1.56
2022-11-05T23:05:16.435Z,1.57
2022-11-05T23:08:02.559Z,1.61
2022-11-05T23:10:48.608Z,1.50
2022-11-05T23:13:17.328Z,1.53
2022-11-05T23:16:04.707Z,1.55
2022-11-05T23:18:50.807Z,1.57
2022-11-05T23:21:36.640Z,1.59
2022-11-05T23:24:06.271Z,1.62
2022-11-05T23:26:52.188Z,1.61
2022-11-05T23:29:22.376Z,1.62
2022-11-05T23:32:10.187Z,1.58
2022-11-05T23:34:39.276Z,1.54
2022-11-05T23:37:25.021Z,1.62
2022-11-05T23:39:53.687Z,1.58
2022-11-05T23:42:39.828Z,1.61
2022-11-05T23:45:27.016Z,1.67
2022-11-05T23:48:22.700Z,1.64
2022-11-05T23:50:57.685Z,1.59
2022-11-05T23:53:27.019Z,1.56
2022-11-05T23:56:01.378Z,1.52
2022-11-05T23:58:30.427Z,1.66
